createdAt,value
2023-04-21T00:02:49.989Z,99.90
2023-04-21T00:06:24.983Z,99.90
2023-04-21T00:09:51.958Z,99.90
2023-04-21T00:13:16.058Z,99.90
2023-04-21T00:16:49.526Z,99.90
2023-04-21T00:20:18.810Z,99.90
2023-04-21T00:23:58.553Z,99.90
2023-04-21T00:27:24.451Z,99.90
2023-04-21T00:30:50.429Z,99.90
2023-04-21T00:34:20.813Z,99.90
2023-04-21T00:37:47.100Z,99.90
2023-04-21T00:41:13.299Z,99.90
2023-04-21T00:44:40.136Z,99.90
2023-04-21T00:48:13.428Z,99.90
2023-04-21T00:51:41.009Z,99.90
2023-04-21T00:55:06.188Z,99.90
2023-04-21T00:58:29.968Z,99.90
2023-04-21T01:01:53.811Z,99.90
2023-04-21T01:05:19.255Z,99.90
2023-04-21T01:08:44.980Z,99.90
2023-04-21T01:12:10.438Z,99.90
2023-04-21T01:15:34.133Z,99.90
2023-04-21T01:18:59.029Z,99.90
2023-04-21T01:22:24.078Z,99.90
2023-04-21T01:25:47.970Z,99.90
2023-04-21T01:29:11.586Z,99.90
2023-04-21T01:32:35.310Z,99.90
2023-04-21T01:35:59.718Z,99.90
2023-04-21T01:39:24.780Z,99.90
2023-04-21T01:42:48.445Z,99.90
2023-04-21T01:46:12.150Z,99.90
2023-04-21T01:49:35.800Z,99.90
2023-04-21T01:52:59.471Z,99.90
2023-04-21T01:56:24.386Z,99.90
2023-04-21T01:59:49.591Z,99.90
2023-04-21T02:03:14.053Z,99.90
2023-04-21T02:06:37.755Z,99.90
2023-04-21T02:10:03.905Z,99.90
2023-04-21T02:13:28.907Z,99.90
2023-04-21T02:16:52.868Z,99.90
2023-04-21T02:20:16.831Z,99.90
2023-04-21T02:23:40.393Z,99.90
2023-04-21T02:27:04.025Z,99.90
2023-04-21T02:30:29.295Z,99.90
2023-04-21T02:33:54.500Z,99.90
2023-04-21T02:37:18.192Z,99.90
2023-04-21T02:40:42.679Z,99.90
2023-04-21T02:44:06.490Z,99.90
2023-04-21T02:47:31.570Z,99.90
2023-04-21T02:50:55.202Z,99.90
2023-04-21T02:54:18.821Z,99.90
2023-04-21T02:57:42.445Z,99.90
2023-04-21T03:01:08.965Z,99.90
2023-04-21T03:04:34.875Z,99.90
2023-04-21T03:07:58.578Z,99.90
2023-04-21T03:11:22.253Z,99.90
2023-04-21T03:14:45.830Z,99.90
2023-04-21T03:18:09.531Z,99.90
2023-04-21T03:21:37.172Z,99.90
2023-04-21T03:25:00.825Z,99.90
2023-04-21T03:28:24.444Z,99.90
2023-04-21T03:31:48.998Z,99.90
2023-04-21T03:35:12.999Z,99.90
2023-04-21T03:38:37.991Z,99.90
2023-04-21T03:42:01.624Z,99.90
2023-04-21T03:45:26.631Z,99.90
2023-04-21T03:48:50.218Z,99.90
2023-04-21T03:52:13.848Z,99.90
2023-04-21T03:55:38.936Z,99.90
2023-04-21T03:59:02.500Z,99.90
2023-04-21T04:02:27.037Z,99.90
2023-04-21T04:05:50.773Z,99.90
2023-04-21T04:09:14.324Z,99.90
2023-04-21T04:12:39.354Z,99.90
2023-04-21T04:16:03.223Z,99.90
2023-04-21T04:19:31.904Z,99.90
2023-04-21T04:22:55.551Z,99.90
2023-04-21T04:26:19.233Z,99.90
2023-04-21T04:29:46.474Z,99.90
2023-04-21T04:33:10.222Z,99.90
2023-04-21T04:36:34.405Z,99.90
2023-04-21T04:39:58.071Z,99.90
2023-04-21T04:43:21.610Z,99.90
2023-04-21T04:46:46.508Z,99.90
2023-04-21T04:50:10.546Z,99.90
2023-04-21T04:53:34.148Z,99.90
2023-04-21T04:56:58.649Z,99.90
2023-04-21T05:00:22.742Z,99.90
2023-04-21T05:03:48.496Z,99.90
2023-04-21T05:07:12.288Z,99.90
2023-04-21T05:10:38.654Z,99.90
2023-04-21T05:14:02.230Z,99.90
2023-04-21T05:17:26.008Z,99.90
2023-04-21T05:20:50.999Z,99.90
2023-04-21T05:24:14.804Z,99.90
2023-04-21T05:27:38.476Z,99.90
2023-04-21T05:31:02.097Z,99.90
2023-04-21T05:34:25.750Z,99.90
2023-04-21T05:37:50.706Z,99.90
2023-04-21T05:41:14.321Z,99.90
2023-04-21T05:44:38.014Z,99.90
2023-04-21T05:48:01.678Z,99.90
2023-04-21T05:51:25.616Z,99.90
2023-04-21T05:54:50.694Z,99.90
2023-04-21T05:58:14.322Z,99.90
2023-04-21T06:01:37.966Z,99.90
2023-04-21T06:05:01.899Z,99.90
2023-04-21T06:08:25.881Z,99.90
2023-04-21T06:11:51.528Z,99.90
2023-04-21T06:15:15.173Z,99.90
2023-04-21T06:18:38.864Z,99.90
2023-04-21T06:22:02.440Z,99.90
2023-04-21T06:25:26.015Z,99.90
2023-04-21T06:28:51.244Z,99.90
2023-04-21T06:32:14.863Z,99.90
2023-04-21T06:35:38.447Z,99.90
2023-04-21T06:39:02.067Z,99.90
2023-04-21T06:42:25.746Z,99.90
2023-04-21T06:45:53.149Z,99.90
2023-04-21T06:49:16.883Z,99.90
2023-04-21T06:52:40.660Z,99.90
2023-04-21T06:56:04.918Z,99.90
2023-04-21T06:59:28.686Z,99.90
2023-04-21T07:02:55.251Z,99.90
2023-04-21T07:06:19.073Z,99.90
2023-04-21T07:09:43.027Z,99.90
2023-04-21T07:13:08.779Z,99.90
2023-04-21T07:16:34.102Z,98.10
2023-04-21T07:19:59.618Z,96.60
2023-04-21T07:23:26.172Z,96.10
2023-04-21T07:26:49.790Z,96.10
2023-04-21T07:30:14.649Z,96.20
2023-04-21T07:33:39.058Z,95.80
2023-04-21T07:37:04.376Z,95.00
2023-04-21T07:40:28.537Z,94.20
2023-04-21T07:43:53.883Z,93.20
2023-04-21T07:47:18.097Z,92.10
2023-04-21T07:50:42.538Z,92.40
2023-04-21T07:54:08.625Z,92.00
2023-04-21T07:57:34.463Z,91.30
2023-04-21T08:00:58.997Z,89.30
2023-04-21T08:04:23.534Z,91.90
2023-04-21T08:07:48.130Z,95.10
2023-04-21T08:11:15.154Z,96.60
2023-04-21T08:14:38.986Z,97.20
2023-04-21T08:18:03.264Z,97.40
2023-04-21T08:21:29.516Z,96.40
2023-04-21T08:24:55.178Z,94.10
2023-04-21T08:28:20.566Z,94.70
2023-04-21T08:31:45.201Z,96.60
2023-04-21T08:35:09.846Z,97.30
2023-04-21T08:38:35.367Z,96.50
2023-04-21T08:42:01.567Z,97.20
2023-04-21T08:45:28.621Z,98.20
2023-04-21T08:48:55.066Z,98.20
2023-04-21T08:52:20.098Z,98.00
2023-04-21T08:55:44.230Z,98.20
2023-04-21T08:59:08.083Z,98.40
2023-04-21T09:02:33.622Z,99.30
2023-04-21T09:05:59.394Z,99.20
2023-04-21T09:09:23.470Z,98.30
2023-04-21T09:12:52.610Z,98.50
2023-04-21T09:16:22.433Z,98.00
2023-04-21T09:19:50.933Z,97.10
2023-04-21T09:23:14.989Z,94.00
2023-04-21T09:26:39.771Z,90.80
2023-04-21T09:30:06.399Z,90.70
2023-04-21T09:33:42.607Z,89.40
2023-04-21T09:37:18.161Z,87.00
2023-04-21T09:40:43.198Z,89.00
2023-04-21T09:44:07.419Z,87.50
2023-04-21T09:47:31.881Z,88.80
2023-04-21T09:54:32.732Z,79.40
2023-04-21T09:58:00.683Z,78.60
2023-04-21T10:01:27.755Z,76.90
2023-04-21T10:04:52.500Z,75.30
2023-04-21T10:08:18.076Z,74.80
2023-04-21T10:11:46.103Z,72.30
2023-04-21T10:15:31.509Z,71.60
2023-04-21T10:18:55.193Z,68.40
2023-04-21T10:22:32.007Z,67.70
2023-04-21T10:26:04.493Z,67.40
2023-04-21T10:33:07.381Z,73.90
2023-04-21T10:36:31.248Z,76.30
2023-04-21T10:39:57.036Z,76.50
2023-04-21T10:43:48.869Z,75.70
2023-04-21T10:47:25.454Z,74.60
2023-04-21T10:50:50.041Z,74.80
2023-04-21T10:54:15.550Z,75.30
2023-04-21T10:57:45.609Z,78.10
2023-04-21T11:01:09.857Z,78.70
2023-04-21T11:04:36.018Z,78.90
2023-04-21T11:08:12.745Z,77.90
2023-04-21T11:11:37.538Z,77.90
2023-04-21T11:15:05.064Z,78.40
2023-04-21T11:18:39.211Z,77.60
2023-04-21T11:22:05.328Z,78.40
2023-04-21T11:25:29.325Z,77.80
2023-04-21T11:28:53.404Z,77.40
2023-04-21T11:32:18.728Z,77.40
2023-04-21T11:35:42.612Z,78.40
2023-04-21T11:39:10.160Z,79.20
2023-04-21T11:42:34.669Z,78.20
2023-04-21T11:46:13.418Z,76.90
2023-04-21T11:49:46.659Z,75.60
2023-04-21T11:53:11.400Z,74.30
2023-04-21T11:56:38.829Z,74.30
2023-04-21T12:00:07.820Z,73.80
2023-04-21T12:03:33.417Z,71.30
2023-04-21T12:06:59.587Z,67.80
2023-04-21T12:10:23.554Z,64.50
2023-04-21T12:13:51.184Z,62.40
2023-04-21T12:17:14.894Z,61.70
2023-04-21T12:20:39.550Z,59.40
2023-04-21T12:24:06.059Z,60.90
2023-04-21T12:27:31.074Z,60.40
2023-04-21T12:30:57.218Z,59.20
2023-04-21T12:34:21.699Z,58.50
2023-04-21T12:37:46.703Z,58.10
2023-04-21T12:41:10.444Z,57.30
2023-04-21T12:44:34.676Z,57.70
2023-04-21T12:48:00.951Z,55.90
2023-04-21T12:51:26.909Z,55.60
2023-04-21T12:54:51.372Z,54.10
2023-04-21T12:58:16.859Z,54.60
2023-04-21T13:01:42.512Z,54.80
2023-04-21T13:05:09.932Z,53.50
2023-04-21T13:08:33.643Z,52.10
2023-04-21T13:12:00.735Z,52.80
2023-04-21T13:15:27.048Z,51.40
2023-04-21T13:18:51.590Z,50.10
2023-04-21T13:22:16.909Z,50.60
2023-04-21T13:25:41.505Z,50.30
2023-04-21T13:29:05.700Z,50.10
2023-04-21T13:32:29.388Z,51.80
2023-04-21T13:35:53.488Z,51.80
2023-04-21T13:39:18.968Z,51.50
2023-04-21T13:42:44.959Z,49.90
2023-04-21T13:46:08.620Z,49.90
2023-04-21T13:49:32.689Z,50.40
2023-04-21T13:52:57.613Z,50.00
2023-04-21T13:56:23.990Z,50.80
2023-04-21T13:59:50.921Z,51.00
2023-04-21T14:03:15.110Z,50.80
2023-04-21T14:06:42.038Z,51.30
2023-04-21T14:10:06.935Z,52.00
2023-04-21T14:13:41.792Z,52.30
2023-04-21T14:17:12.296Z,51.60
2023-04-21T14:20:36.754Z,51.70
2023-04-21T14:24:03.511Z,51.50
2023-04-21T14:27:27.658Z,51.40
2023-04-21T14:30:53.111Z,52.00
2023-04-21T14:34:17.788Z,51.40
2023-04-21T14:37:42.160Z,50.10
2023-04-21T14:41:06.746Z,51.70
2023-04-21T14:44:31.270Z,51.40
2023-04-21T14:47:57.069Z,51.50
2023-04-21T14:51:21.843Z,52.10
2023-04-21T14:54:48.442Z,52.00
2023-04-21T14:58:12.116Z,52.50
2023-04-21T15:01:36.684Z,52.70
2023-04-21T15:05:03.554Z,51.70
2023-04-21T15:08:27.726Z,52.50
2023-04-21T15:11:51.953Z,53.20
2023-04-21T15:15:15.765Z,54.70
2023-04-21T15:18:39.854Z,54.70
2023-04-21T15:22:05.798Z,54.80
2023-04-21T15:25:32.772Z,55.50
2023-04-21T15:28:56.662Z,55.90
2023-04-21T15:32:22.776Z,56.10
2023-04-21T15:35:48.770Z,56.40
2023-04-21T15:39:14.121Z,57.20
2023-04-21T15:42:38.856Z,57.30
2023-04-21T15:46:02.751Z,57.90
2023-04-21T15:49:34.222Z,58.00
2023-04-21T15:52:58.167Z,58.00
2023-04-21T15:56:24.148Z,58.50
2023-04-21T15:59:49.022Z,58.60
2023-04-21T16:03:14.084Z,58.80
2023-04-21T16:06:39.109Z,59.30
2023-04-21T16:10:04.053Z,58.90
2023-04-21T16:13:32.321Z,59.00
2023-04-21T16:16:56.803Z,59.30
2023-04-21T16:20:20.966Z,60.20
2023-04-21T16:23:44.890Z,60.20
2023-04-21T16:27:08.807Z,60.40
2023-04-21T16:30:35.074Z,60.90
2023-04-21T16:33:59.931Z,60.90
2023-04-21T16:37:24.394Z,61.10
2023-04-21T16:40:51.454Z,61.60
2023-04-21T16:44:15.797Z,61.30
2023-04-21T16:47:42.671Z,62.70
2023-04-21T16:51:06.995Z,62.30
2023-04-21T16:54:33.490Z,62.80
2023-04-21T16:57:57.350Z,63.40
2023-04-21T17:01:21.978Z,63.60
2023-04-21T17:04:49.846Z,63.60
2023-04-21T17:08:13.765Z,63.60
2023-04-21T17:11:39.914Z,63.50
2023-04-21T17:15:06.128Z,63.40
2023-04-21T17:18:30.583Z,63.30
2023-04-21T17:21:56.158Z,63.20
2023-04-21T17:25:19.784Z,63.40
2023-04-21T17:28:43.845Z,64.30
2023-04-21T17:32:07.849Z,63.90
2023-04-21T17:35:31.800Z,64.00
2023-04-21T17:38:58.310Z,64.40
2023-04-21T17:42:22.835Z,64.50
2023-04-21T17:45:46.846Z,65.10
2023-04-21T17:49:11.371Z,65.20
2023-04-21T17:52:35.818Z,66.00
2023-04-21T17:56:01.518Z,66.00
2023-04-21T17:59:26.245Z,66.70
2023-04-21T18:02:51.140Z,66.40
2023-04-21T18:06:16.421Z,66.30
2023-04-21T18:09:40.817Z,66.70
2023-04-21T18:13:06.605Z,67.30
2023-04-21T18:16:31.004Z,67.10
2023-04-21T18:19:54.841Z,67.50
2023-04-21T18:23:18.945Z,67.40
2023-04-21T18:26:42.938Z,67.80
2023-04-21T18:30:10.336Z,68.00
2023-04-21T18:33:35.235Z,67.70
2023-04-21T18:37:02.187Z,68.00
2023-04-21T18:40:25.904Z,68.10
2023-04-21T18:43:50.248Z,68.10
2023-04-21T18:47:16.381Z,68.50
2023-04-21T18:50:41.061Z,68.30
2023-04-21T18:54:05.774Z,68.90
2023-04-21T18:57:30.435Z,69.10
2023-04-21T19:00:55.988Z,69.50
2023-04-21T19:04:21.386Z,70.10
2023-04-21T19:07:46.014Z,70.10
2023-04-21T19:11:10.900Z,70.30
2023-04-21T19:14:45.465Z,70.60
2023-04-21T19:18:11.126Z,71.10
2023-04-21T19:21:36.408Z,71.40
2023-04-21T19:25:00.921Z,72.00
2023-04-21T19:28:25.129Z,72.60
2023-04-21T19:31:48.864Z,73.10
2023-04-21T19:35:12.464Z,73.80
2023-04-21T19:38:37.490Z,74.30
2023-04-21T19:42:01.147Z,74.60
2023-04-21T19:45:32.824Z,75.20
2023-04-21T19:48:57.402Z,75.80
2023-04-21T19:52:25.068Z,76.30
2023-04-21T19:55:55.111Z,76.80
2023-04-21T19:59:20.242Z,77.30
2023-04-21T20:02:44.301Z,77.90
2023-04-21T20:06:08.126Z,79.30
2023-04-21T20:09:32.446Z,78.70
2023-04-21T20:13:07.197Z,79.30
2023-04-21T20:16:37.171Z,79.70
2023-04-21T20:20:06.573Z,79.90
2023-04-21T20:23:33.600Z,80.10
2023-04-21T20:27:00.728Z,80.30
2023-04-21T20:30:28.958Z,80.40
2023-04-21T20:33:55.197Z,80.70
2023-04-21T20:37:23.453Z,81.10
2023-04-21T20:40:50.163Z,81.20
2023-04-21T20:44:16.608Z,82.30
2023-04-21T20:47:47.636Z,81.40
2023-04-21T20:51:11.211Z,83.20
2023-04-21T20:54:41.698Z,83.70
2023-04-21T20:58:05.932Z,80.90
2023-04-21T21:01:33.984Z,79.40
2023-04-21T21:04:58.936Z,79.00
2023-04-21T21:08:23.642Z,78.00
2023-04-21T21:11:49.924Z,77.70
2023-04-21T21:15:15.417Z,78.40
2023-04-21T21:18:42.121Z,77.90
2023-04-21T21:22:07.400Z,78.30
2023-04-21T21:25:31.104Z,78.30
2023-04-21T21:28:57.159Z,79.10
2023-04-21T21:32:21.001Z,78.70
2023-04-21T21:35:45.236Z,78.90
2023-04-21T21:39:11.417Z,79.30
2023-04-21T21:42:38.392Z,79.90
2023-04-21T21:46:07.603Z,80.10
2023-04-21T21:49:32.343Z,81.20
2023-04-21T21:52:58.543Z,80.30
2023-04-21T21:56:24.035Z,80.60
2023-04-21T21:59:48.598Z,80.60
2023-04-21T22:03:13.216Z,82.20
2023-04-21T22:06:38.167Z,85.10
2023-04-21T22:10:02.465Z,85.40
2023-04-21T22:13:31.008Z,86.20
2023-04-21T22:16:57.191Z,86.80
2023-04-21T22:20:22.083Z,86.80
2023-04-21T22:23:45.677Z,87.10
2023-04-21T22:27:10.221Z,87.60
2023-04-21T22:30:38.173Z,88.20
2023-04-21T22:34:02.606Z,88.70
2023-04-21T22:37:27.244Z,89.00
2023-04-21T22:40:50.977Z,89.40
2023-04-21T22:44:15.189Z,89.90
2023-04-21T22:47:43.088Z,90.20
2023-04-21T22:51:08.125Z,90.60
2023-04-21T22:54:32.177Z,90.90
2023-04-21T22:57:56.230Z,90.90
2023-04-21T23:01:20.651Z,91.50
2023-04-21T23:04:46.673Z,91.70
2023-04-21T23:08:13.026Z,92.10
2023-04-21T23:11:36.639Z,92.40
2023-04-21T23:15:01.283Z,92.70
2023-04-21T23:18:25.173Z,92.90
2023-04-21T23:21:50.615Z,92.90
2023-04-21T23:25:15.682Z,93.10
2023-04-21T23:28:40.379Z,93.40
2023-04-21T23:32:06.713Z,93.50
2023-04-21T23:35:31.532Z,93.70
2023-04-21T23:38:56.649Z,93.90
2023-04-21T23:42:21.218Z,94.00
2023-04-21T23:45:45.439Z,94.30
2023-04-21T23:49:09.264Z,94.70
2023-04-21T23:52:33.979Z,94.90
2023-04-21T23:55:59.624Z,95.10
2023-04-21T23:59:23.262Z,95.20
